sensor_id;sensor_type;location;lat;lon;timestamp;pressure;altitude;pressure_sealevel;temperature;humidity
61014;BME280;46899;47.542;19.082;2023-05-09T00:00:24;101280.03;;;8.38;67.73
61014;BME280;46899;47.542;19.082;2023-05-09T00:03:27;101276.50;;;8.45;67.38
61014;BME280;46899;47.542;19.082;2023-05-09T00:06:30;101276.38;;;8.55;67.15
61014;BME280;46899;47.542;19.082;2023-05-09T00:09:33;101280.66;;;8.58;67.04
61014;BME280;46899;47.542;19.082;2023-05-09T00:12:36;101276.34;;;8.58;67.09
61014;BME280;46899;47.542;19.082;2023-05-09T00:15:38;101274.75;;;8.47;67.62
61014;BME280;46899;47.542;19.082;2023-05-09T00:18:41;101272.13;;;8.50;67.14
61014;BME280;46899;47.542;19.082;2023-05-09T00:21:44;101268.72;;;8.45;67.56
61014;BME280;46899;47.542;19.082;2023-05-09T00:24:47;101266.22;;;8.37;68.21
61014;BME280;46899;47.542;19.082;2023-05-09T00:27:50;101268.88;;;8.30;68.71
61014;BME280;46899;47.542;19.082;2023-05-09T00:30:53;101270.69;;;8.21;69.11
61014;BME280;46899;47.542;19.082;2023-05-09T00:33:55;101259.41;;;8.27;68.60
61014;BME280;46899;47.542;19.082;2023-05-09T00:36:58;101251.72;;;8.16;69.10
61014;BME280;46899;47.542;19.082;2023-05-09T00:40:00;101249.94;;;8.21;68.99
61014;BME280;46899;47.542;19.082;2023-05-09T00:43:03;101254.28;;;8.18;69.30
61014;BME280;46899;47.542;19.082;2023-05-09T00:46:06;101256.16;;;8.05;70.15
61014;BME280;46899;47.542;19.082;2023-05-09T00:49:09;101258.75;;;8.05;69.87
61014;BME280;46899;47.542;19.082;2023-05-09T00:52:13;101254.47;;;8.03;70.45
61014;BME280;46899;47.542;19.082;2023-05-09T00:55:16;101259.69;;;7.98;70.70
61014;BME280;46899;47.542;19.082;2023-05-09T00:58:18;101257.06;;;8.01;70.29
61014;BME280;46899;47.542;19.082;2023-05-09T01:01:22;101257.16;;;7.92;70.75
61014;BME280;46899;47.542;19.082;2023-05-09T01:04:24;101250.28;;;7.91;71.02
61014;BME280;46899;47.542;19.082;2023-05-09T01:13:37;101258.09;;;7.84;71.59
61014;BME280;46899;47.542;19.082;2023-05-09T01:16:45;101260.75;;;7.76;72.37
61014;BME280;46899;47.542;19.082;2023-05-09T01:20:34;101258.16;;;7.76;72.37
61014;BME280;46899;47.542;19.082;2023-05-09T01:26:44;101257.41;;;7.65;73.09
61014;BME280;46899;47.542;19.082;2023-05-09T01:29:54;101249.72;;;7.54;74.41
61014;BME280;46899;47.542;19.082;2023-05-09T01:32:58;101252.34;;;7.50;74.70
61014;BME280;46899;47.542;19.082;2023-05-09T01:36:03;101248.91;;;7.51;74.35
61014;BME280;46899;47.542;19.082;2023-05-09T01:39:06;101248.94;;;7.45;75.20
61014;BME280;46899;47.542;19.082;2023-05-09T01:42:13;101255.84;;;7.46;74.96
61014;BME280;46899;47.542;19.082;2023-05-09T01:45:17;101248.97;;;7.40;75.33
61014;BME280;46899;47.542;19.082;2023-05-09T01:48:20;101242.94;;;7.41;75.07
61014;BME280;46899;47.542;19.082;2023-05-09T01:51:27;101245.56;;;7.37;75.34
61014;BME280;46899;47.542;19.082;2023-05-09T01:54:31;101246.47;;;7.30;75.68
61014;BME280;46899;47.542;19.082;2023-05-09T01:57:34;101241.34;;;7.22;76.36
61014;BME280;46899;47.542;19.082;2023-05-09T02:00:37;101244.75;;;7.26;76.19
61014;BME280;46899;47.542;19.082;2023-05-09T02:03:40;101241.34;;;7.19;76.41
61014;BME280;46899;47.542;19.082;2023-05-09T02:06:44;101234.50;;;7.14;76.45
61014;BME280;46899;47.542;19.082;2023-05-09T02:09:47;101232.78;;;7.16;76.56
61014;BME280;46899;47.542;19.082;2023-05-09T02:12:51;101237.13;;;7.08;77.57
61014;BME280;46899;47.542;19.082;2023-05-09T02:15:54;101229.41;;;7.02;77.83
61014;BME280;46899;47.542;19.082;2023-05-09T02:18:57;101238.03;;;7.01;78.43
61014;BME280;46899;47.542;19.082;2023-05-09T02:22:02;101236.34;;;6.97;78.72
61014;BME280;46899;47.542;19.082;2023-05-09T02:25:06;101235.53;;;6.88;79.01
61014;BME280;46899;47.542;19.082;2023-05-09T02:28:09;101232.97;;;6.84;79.68
61014;BME280;46899;47.542;19.082;2023-05-09T02:31:12;101226.06;;;6.87;79.94
61014;BME280;46899;47.542;19.082;2023-05-09T02:34:16;101233.75;;;6.97;80.57
61014;BME280;46899;47.542;19.082;2023-05-09T02:37:19;101222.50;;;7.02;80.71
61014;BME280;46899;47.542;19.082;2023-05-09T02:40:21;101224.25;;;6.99;81.01
61014;BME280;46899;47.542;19.082;2023-05-09T02:43:26;101220.84;;;6.94;81.69
61014;BME280;46899;47.542;19.082;2023-05-09T02:46:29;101223.37;;;7.00;82.04
61014;BME280;46899;47.542;19.082;2023-05-09T02:49:33;101223.37;;;6.98;81.93
61014;BME280;46899;47.542;19.082;2023-05-09T02:52:36;101228.59;;;6.97;82.65
61014;BME280;46899;47.542;19.082;2023-05-09T02:55:39;101221.69;;;6.96;83.13
61014;BME280;46899;47.542;19.082;2023-05-09T02:58:41;101228.59;;;6.97;83.25
61014;BME280;46899;47.542;19.082;2023-05-09T03:01:46;101229.47;;;6.94;83.25
61014;BME280;46899;47.542;19.082;2023-05-09T03:04:49;101224.25;;;6.96;83.33
61014;BME280;46899;47.542;19.082;2023-05-09T03:07:52;101224.31;;;6.89;83.64
61014;BME280;46899;47.542;19.082;2023-05-09T03:10:54;101218.31;;;6.84;83.76
61014;BME280;46899;47.542;19.082;2023-05-09T03:13:57;101220.03;;;6.87;83.49
61014;BME280;46899;47.542;19.082;2023-05-09T03:16:59;101216.56;;;6.86;83.59
61014;BME280;46899;47.542;19.082;2023-05-09T03:20:02;101220.88;;;6.83;83.94
61014;BME280;46899;47.542;19.082;2023-05-09T03:23:07;101220.06;;;6.82;83.69
61014;BME280;46899;47.542;19.082;2023-05-09T03:26:09;101214.00;;;6.85;84.05
61014;BME280;46899;47.542;19.082;2023-05-09T03:29:12;101217.44;;;6.81;84.42
61014;BME280;46899;47.542;19.082;2023-05-09T03:32:14;101224.31;;;6.88;83.76
61014;BME280;46899;47.542;19.082;2023-05-09T03:35:17;101222.59;;;6.87;83.88
61014;BME280;46899;47.542;19.082;2023-05-09T03:38:20;101220.88;;;6.87;83.91
61014;BME280;46899;47.542;19.082;2023-05-09T03:41:25;101226.87;;;6.93;83.39
61014;BME280;46899;47.542;19.082;2023-05-09T03:44:28;101226.03;;;6.92;83.23
61014;BME280;46899;47.542;19.082;2023-05-09T03:47:31;101224.25;;;7.02;82.48
61014;BME280;46899;47.542;19.082;2023-05-09T03:50:34;101230.22;;;7.08;82.06
61014;BME280;46899;47.542;19.082;2023-05-09T03:53:37;101230.19;;;7.13;81.73
61014;BME280;46899;47.542;19.082;2023-05-09T03:56:40;101232.72;;;7.19;81.10
61014;BME280;46899;47.542;19.082;2023-05-09T03:59:43;101235.31;;;7.19;81.46
61014;BME280;46899;47.542;19.082;2023-05-09T04:02:47;101237.03;;;7.24;81.15
61014;BME280;46899;47.542;19.082;2023-05-09T04:05:52;101230.06;;;7.31;80.85
61014;BME280;46899;47.542;19.082;2023-05-09T04:08:55;101236.97;;;7.32;81.08
61014;BME280;46899;47.542;19.082;2023-05-09T04:11:58;101234.28;;;7.42;80.50
61014;BME280;46899;47.542;19.082;2023-05-09T04:15:01;101228.12;;;7.54;79.72
61014;BME280;46899;47.542;19.082;2023-05-09T04:18:05;101238.47;;;7.57;79.30
61014;BME280;46899;47.542;19.082;2023-05-09T04:21:07;101229.75;;;7.67;78.93
61014;BME280;46899;47.542;19.082;2023-05-09T04:24:10;101239.12;;;7.80;77.97
61014;BME280;46899;47.542;19.082;2023-05-09T04:27:14;101232.19;;;7.84;77.95
61014;BME280;46899;47.542;19.082;2023-05-09T04:30:17;101239.94;;;7.88;77.60
61014;BME280;46899;47.542;19.082;2023-05-09T04:33:20;101239.81;;;7.97;77.61
61014;BME280;46899;47.542;19.082;2023-05-09T04:36:23;101233.72;;;8.01;76.21
61014;BME280;46899;47.542;19.082;2023-05-09T04:39:26;101231.13;;;8.04;76.38
61014;BME280;46899;47.542;19.082;2023-05-09T04:42:30;101234.41;;;8.18;74.65
61014;BME280;46899;47.542;19.082;2023-05-09T04:45:35;101246.53;;;8.16;74.01
61014;BME280;46899;47.542;19.082;2023-05-09T04:48:37;101241.25;;;8.25;73.89
61014;BME280;46899;47.542;19.082;2023-05-09T04:51:39;101239.41;;;8.37;73.09
61014;BME280;46899;47.542;19.082;2023-05-09T04:54:42;101238.47;;;8.45;71.81
61014;BME280;46899;47.542;19.082;2023-05-09T04:57:45;101240.47;;;8.89;71.79
61014;BME280;46899;47.542;19.082;2023-05-09T05:00:49;101234.41;;;10.41;62.90
61014;BME280;46899;47.542;19.082;2023-05-09T05:03:51;101234.84;;;11.75;58.75
61014;BME280;46899;47.542;19.082;2023-05-09T05:06:54;101241.56;;;11.48;56.90
61014;BME280;46899;47.542;19.082;2023-05-09T05:09:57;101245.91;;;10.74;59.88
61014;BME280;46899;47.542;19.082;2023-05-09T05:12:59;101244.50;;;10.13;62.60
61014;BME280;46899;47.542;19.082;2023-05-09T05:16:02;101244.97;;;9.88;64.06
61014;BME280;46899;47.542;19.082;2023-05-09T05:19:05;101246.53;;;9.46;65.91
61014;BME280;46899;47.542;19.082;2023-05-09T05:22:09;101250.78;;;9.50;66.31
61014;BME280;46899;47.542;19.082;2023-05-09T05:25:13;101243.84;;;9.53;66.18
61014;BME280;46899;47.542;19.082;2023-05-09T05:28:16;101235.75;;;9.70;65.75
61014;BME280;46899;47.542;19.082;2023-05-09T05:31:20;101245.16;;;9.76;65.13
61014;BME280;46899;47.542;19.082;2023-05-09T05:34:22;101241.66;;;9.78;65.10
61014;BME280;46899;47.542;19.082;2023-05-09T05:37:25;101240.50;;;9.96;65.16
61014;BME280;46899;47.542;19.082;2023-05-09T05:40:27;101246.47;;;9.99;65.13
61014;BME280;46899;47.542;19.082;2023-05-09T05:43:31;101239.34;;;10.12;64.69
61014;BME280;46899;47.542;19.082;2023-05-09T05:46:34;101230.22;;;10.36;64.31
61014;BME280;46899;47.542;19.082;2023-05-09T05:49:37;101238.13;;;10.31;63.54
61014;BME280;46899;47.542;19.082;2023-05-09T05:52:40;101239.91;;;10.27;63.69
61014;BME280;46899;47.542;19.082;2023-05-09T05:55:43;101236.91;;;10.47;62.71
61014;BME280;46899;47.542;19.082;2023-05-09T05:58:47;101244.34;;;10.65;61.72
61014;BME280;46899;47.542;19.082;2023-05-09T06:01:51;101243.09;;;10.83;61.31
61014;BME280;46899;47.542;19.082;2023-05-09T06:04:55;101243.78;;;10.91;60.81
61014;BME280;46899;47.542;19.082;2023-05-09T06:07:58;101242.09;;;10.88;60.85
61014;BME280;46899;47.542;19.082;2023-05-09T06:11:00;101239.28;;;10.97;61.04
61014;BME280;46899;47.542;19.082;2023-05-09T06:14:03;101234.63;;;11.12;60.23
61014;BME280;46899;47.542;19.082;2023-05-09T06:17:06;101241.34;;;11.22;60.12
61014;BME280;46899;47.542;19.082;2023-05-09T06:20:09;101232.75;;;11.17;60.62
61014;BME280;46899;47.542;19.082;2023-05-09T06:23:12;101244.03;;;11.54;59.58
61014;BME280;46899;47.542;19.082;2023-05-09T06:26:14;101245.00;;;11.85;59.03
61014;BME280;46899;47.542;19.082;2023-05-09T06:29:17;101239.63;;;12.23;58.08
61014;BME280;46899;47.542;19.082;2023-05-09T06:32:20;101231.59;;;12.60;56.22
61014;BME280;46899;47.542;19.082;2023-05-09T06:35:23;101229.94;;;12.87;55.87
61014;BME280;46899;47.542;19.082;2023-05-09T06:38:25;101223.53;;;12.97;54.89
61014;BME280;46899;47.542;19.082;2023-05-09T06:41:28;101224.56;;;13.21;54.09
61014;BME280;46899;47.542;19.082;2023-05-09T06:44:30;101222.56;;;13.55;53.49
61014;BME280;46899;47.542;19.082;2023-05-09T06:47:34;101222.66;;;14.03;51.18
61014;BME280;46899;47.542;19.082;2023-05-09T06:50:36;101219.75;;;14.58;50.42
61014;BME280;46899;47.542;19.082;2023-05-09T06:53:39;101213.37;;;17.08;42.50
61014;BME280;46899;47.542;19.082;2023-05-09T06:56:41;101218.31;;;22.09;32.90
61014;BME280;46899;47.542;19.082;2023-05-09T06:59:44;101213.44;;;26.22;26.58
61014;BME280;46899;47.542;19.082;2023-05-09T07:02:48;101211.84;;;28.79;23.19
61014;BME280;46899;47.542;19.082;2023-05-09T07:05:50;101213.81;;;29.93;21.14
61014;BME280;46899;47.542;19.082;2023-05-09T07:08:53;101208.84;;;30.99;20.41
61014;BME280;46899;47.542;19.082;2023-05-09T07:11:56;101205.81;;;30.60;19.68
61014;BME280;46899;47.542;19.082;2023-05-09T07:14:58;101201.72;;;30.82;19.97
61014;BME280;46899;47.542;19.082;2023-05-09T07:18:01;101200.72;;;31.49;18.83
61014;BME280;46899;47.542;19.082;2023-05-09T07:21:03;101214.81;;;33.32;17.85
61014;BME280;46899;47.542;19.082;2023-05-09T07:24:06;101198.53;;;32.94;17.66
61014;BME280;46899;47.542;19.082;2023-05-09T07:27:09;101188.19;;;33.74;16.68
61014;BME280;46899;47.542;19.082;2023-05-09T07:30:12;101196.22;;;33.82;17.20
61014;BME280;46899;47.542;19.082;2023-05-09T07:33:15;101190.28;;;30.88;18.82
61014;BME280;46899;47.542;19.082;2023-05-09T07:36:20;101180.22;;;29.28;20.16
61014;BME280;46899;47.542;19.082;2023-05-09T07:39:23;101180.28;;;33.27;17.21
61014;BME280;46899;47.542;19.082;2023-05-09T07:42:25;101180.62;;;33.24;17.04
61014;BME280;46899;47.542;19.082;2023-05-09T07:45:27;101182.97;;;33.72;16.74
61014;BME280;46899;47.542;19.082;2023-05-09T07:48:30;101174.47;;;34.27;16.27
61014;BME280;46899;47.542;19.082;2023-05-09T07:51:33;101166.16;;;32.64;17.34
61014;BME280;46899;47.542;19.082;2023-05-09T07:54:35;101164.41;;;34.21;16.38
61014;BME280;46899;47.542;19.082;2023-05-09T07:57:38;101170.56;;;33.18;17.40
61014;BME280;46899;47.542;19.082;2023-05-09T08:00:41;101166.94;;;33.71;16.64
61014;BME280;46899;47.542;19.082;2023-05-09T08:03:44;101159.19;;;33.08;17.05
61014;BME280;46899;47.542;19.082;2023-05-09T08:06:47;101149.44;;;32.99;16.92
61014;BME280;46899;47.542;19.082;2023-05-09T08:09:50;101159.37;;;34.18;16.04
61014;BME280;46899;47.542;19.082;2023-05-09T08:12:52;101149.16;;;32.86;17.06
61014;BME280;46899;47.542;19.082;2023-05-09T08:15:55;101143.53;;;32.73;17.10
61014;BME280;46899;47.542;19.082;2023-05-09T08:18:58;101144.16;;;32.05;17.63
61014;BME280;46899;47.542;19.082;2023-05-09T08:22:00;101143.47;;;29.89;19.77
61014;BME280;46899;47.542;19.082;2023-05-09T08:25:03;101135.75;;;31.68;18.33
61014;BME280;46899;47.542;19.082;2023-05-09T08:28:06;101129.81;;;34.31;16.19
61014;BME280;46899;47.542;19.082;2023-05-09T08:31:09;101143.00;;;35.06;15.71
61014;BME280;46899;47.542;19.082;2023-05-09T08:34:11;101136.84;;;29.75;19.44
61014;BME280;46899;47.542;19.082;2023-05-09T08:37:14;101134.06;;;30.94;18.87
61014;BME280;46899;47.542;19.082;2023-05-09T08:40:17;101126.91;;;30.27;20.33
61014;BME280;46899;47.542;19.082;2023-05-09T08:43:19;101115.19;;;27.43;22.25
61014;BME280;46899;47.542;19.082;2023-05-09T08:46:41;101115.88;;;30.80;19.89
61014;BME280;46899;47.542;19.082;2023-05-09T08:49:45;101119.88;;;32.83;17.69
61014;BME280;46899;47.542;19.082;2023-05-09T08:52:48;101115.19;;;30.78;19.37
61014;BME280;46899;47.542;19.082;2023-05-09T08:55:52;101114.50;;;29.93;19.66
61014;BME280;46899;47.542;19.082;2023-05-09T08:58:55;101106.88;;;30.48;19.78
61014;BME280;46899;47.542;19.082;2023-05-09T09:01:58;101098.37;;;32.97;17.40
61014;BME280;46899;47.542;19.082;2023-05-09T09:05:01;101116.06;;;30.37;18.99
61014;BME280;46899;47.542;19.082;2023-05-09T09:08:05;101101.56;;;29.88;19.65
61014;BME280;46899;47.542;19.082;2023-05-09T09:11:14;101096.88;;;29.90;20.49
61014;BME280;46899;47.542;19.082;2023-05-09T09:14:22;101092.75;;;29.78;20.36
61014;BME280;46899;47.542;19.082;2023-05-09T09:17:29;101079.41;;;26.58;24.00
61014;BME280;46899;47.542;19.082;2023-05-09T09:20:33;101074.91;;;24.54;26.18
61014;BME280;46899;47.542;19.082;2023-05-09T09:23:38;101070.63;;;22.71;28.37
61014;BME280;46899;47.542;19.082;2023-05-09T09:26:45;101083.50;;;22.15;28.99
61014;BME280;46899;47.542;19.082;2023-05-09T09:29:48;101086.62;;;21.71;29.02
61014;BME280;46899;47.542;19.082;2023-05-09T09:32:51;101087.13;;;21.76;29.23
61014;BME280;46899;47.542;19.082;2023-05-09T09:35:54;101078.19;;;21.15;30.01
61014;BME280;46899;47.542;19.082;2023-05-09T09:39:00;101082.34;;;21.31;29.92
61014;BME280;46899;47.542;19.082;2023-05-09T09:42:11;101086.47;;;21.35;29.32
61014;BME280;46899;47.542;19.082;2023-05-09T09:45:14;101093.81;;;20.78;31.24
61014;BME280;46899;47.542;19.082;2023-05-09T09:48:22;101081.16;;;21.10;30.62
61014;BME280;46899;47.542;19.082;2023-05-09T09:51:25;101091.03;;;21.33;29.53
61014;BME280;46899;47.542;19.082;2023-05-09T09:54:30;101084.25;;;21.42;30.17
61014;BME280;46899;47.542;19.082;2023-05-09T09:57:35;101076.75;;;22.11;29.17
61014;BME280;46899;47.542;19.082;2023-05-09T10:00:38;101072.38;;;22.10;29.70
61014;BME280;46899;47.542;19.082;2023-05-09T10:03:42;101069.72;;;22.10;29.78
61014;BME280;46899;47.542;19.082;2023-05-09T10:06:52;101061.78;;;22.46;29.34
61014;BME280;46899;47.542;19.082;2023-05-09T10:09:55;101061.50;;;22.26;29.80
61014;BME280;46899;47.542;19.082;2023-05-09T10:12:59;101053.56;;;21.90;30.09
61014;BME280;46899;47.542;19.082;2023-05-09T10:16:02;101056.63;;;21.71;30.32
61014;BME280;46899;47.542;19.082;2023-05-09T10:19:07;101059.47;;;21.93;29.79
61014;BME280;46899;47.542;19.082;2023-05-09T10:22:11;101051.69;;;20.49;32.04
61014;BME280;46899;47.542;19.082;2023-05-09T10:28:20;101048.75;;;21.19;30.58
61014;BME280;46899;47.542;19.082;2023-05-09T10:31:24;101054.78;;;20.55;30.69
61014;BME280;46899;47.542;19.082;2023-05-09T10:34:28;101052.53;;;20.49;31.36
61014;BME280;46899;47.542;19.082;2023-05-09T10:37:32;101052.22;;;20.80;31.96
61014;BME280;46899;47.542;19.082;2023-05-09T10:40:36;101042.97;;;21.00;30.92
61014;BME280;46899;47.542;19.082;2023-05-09T10:43:38;101041.13;;;21.15;31.16
61014;BME280;46899;47.542;19.082;2023-05-09T10:46:41;101032.75;;;21.83;30.35
61014;BME280;46899;47.542;19.082;2023-05-09T10:49:44;101036.72;;;20.62;30.88
61014;BME280;46899;47.542;19.082;2023-05-09T10:56:30;101036.19;;;22.22;30.25
61014;BME280;46899;47.542;19.082;2023-05-09T10:59:34;101032.63;;;21.98;30.02
61014;BME280;46899;47.542;19.082;2023-05-09T11:02:37;101036.97;;;22.11;30.05
61014;BME280;46899;47.542;19.082;2023-05-09T11:05:40;101038.91;;;20.82;30.95
61014;BME280;46899;47.542;19.082;2023-05-09T11:08:43;101029.38;;;21.56;30.80
61014;BME280;46899;47.542;19.082;2023-05-09T11:11:52;101028.22;;;21.86;30.88
61014;BME280;46899;47.542;19.082;2023-05-09T11:14:55;101032.56;;;21.61;31.24
61014;BME280;46899;47.542;19.082;2023-05-09T11:18:06;101027.88;;;20.75;31.65
61014;BME280;46899;47.542;19.082;2023-05-09T11:21:09;101025.88;;;21.68;31.37
61014;BME280;46899;47.542;19.082;2023-05-09T11:24:16;101015.63;;;22.49;29.94
61014;BME280;46899;47.542;19.082;2023-05-09T11:27:22;101008.47;;;22.62;29.58
61014;BME280;46899;47.542;19.082;2023-05-09T11:30:33;101009.91;;;23.36;28.34
61014;BME280;46899;47.542;19.082;2023-05-09T11:33:37;101009.34;;;22.50;28.97
61014;BME280;46899;47.542;19.082;2023-05-09T11:36:41;100992.38;;;21.67;30.22
61014;BME280;46899;47.542;19.082;2023-05-09T11:39:54;100993.78;;;21.73;30.47
61014;BME280;46899;47.542;19.082;2023-05-09T11:42:57;100988.78;;;21.68;29.76
61014;BME280;46899;47.542;19.082;2023-05-09T11:46:01;100985.81;;;21.60;29.78
61014;BME280;46899;47.542;19.082;2023-05-09T11:49:05;100988.31;;;20.74;29.76
61014;BME280;46899;47.542;19.082;2023-05-09T11:52:07;100992.22;;;21.07;30.08
61014;BME280;46899;47.542;19.082;2023-05-09T11:55:14;101000.88;;;21.22;30.09
61014;BME280;46899;47.542;19.082;2023-05-09T11:58:17;100991.62;;;20.51;31.59
61014;BME280;46899;47.542;19.082;2023-05-09T12:01:20;100988.34;;;20.06;32.25
61014;BME280;46899;47.542;19.082;2023-05-09T12:04:23;100985.66;;;19.79;33.55
61014;BME280;46899;47.542;19.082;2023-05-09T12:07:26;100981.59;;;19.60;33.68
61014;BME280;46899;47.542;19.082;2023-05-09T12:10:29;100973.91;;;19.57;33.99
61014;BME280;46899;47.542;19.082;2023-05-09T12:13:31;100968.38;;;19.74;34.24
61014;BME280;46899;47.542;19.082;2023-05-09T12:16:34;100958.44;;;19.37;35.34
61014;BME280;46899;47.542;19.082;2023-05-09T12:19:36;100968.13;;;19.64;34.03
61014;BME280;46899;47.542;19.082;2023-05-09T12:22:41;100959.63;;;20.68;30.44
61014;BME280;46899;47.542;19.082;2023-05-09T12:25:47;100967.53;;;21.07;29.64
61014;BME280;46899;47.542;19.082;2023-05-09T12:28:50;100966.50;;;20.17;31.55
61014;BME280;46899;47.542;19.082;2023-05-09T12:31:52;100954.25;;;20.82;31.03
61014;BME280;46899;47.542;19.082;2023-05-09T12:34:56;100960.69;;;20.78;31.66
61014;BME280;46899;47.542;19.082;2023-05-09T12:37:59;100949.94;;;20.41;32.03
61014;BME280;46899;47.542;19.082;2023-05-09T12:41:02;100945.91;;;19.95;32.61
61014;BME280;46899;47.542;19.082;2023-05-09T12:44:05;100942.19;;;19.71;32.97
61014;BME280;46899;47.542;19.082;2023-05-09T12:47:09;100935.22;;;19.28;33.68
61014;BME280;46899;47.542;19.082;2023-05-09T12:50:13;100933.44;;;19.28;34.47
61014;BME280;46899;47.542;19.082;2023-05-09T12:53:26;100926.81;;;19.63;34.62
61014;BME280;46899;47.542;19.082;2023-05-09T12:56:32;100919.66;;;19.23;35.29
61014;BME280;46899;47.542;19.082;2023-05-09T12:59:34;100927.12;;;19.31;35.69
61014;BME280;46899;47.542;19.082;2023-05-09T13:02:40;100906.94;;;19.30;35.36
61014;BME280;46899;47.542;19.082;2023-05-09T13:05:44;100912.59;;;19.24;35.56
61014;BME280;46899;47.542;19.082;2023-05-09T13:08:58;100903.94;;;19.07;35.78
61014;BME280;46899;47.542;19.082;2023-05-09T13:12:02;100906.88;;;19.45;35.36
61014;BME280;46899;47.542;19.082;2023-05-09T13:15:11;100894.84;;;19.68;35.31
61014;BME280;46899;47.542;19.082;2023-05-09T13:18:14;100908.13;;;19.81;34.65
61014;BME280;46899;47.542;19.082;2023-05-09T13:21:17;100904.28;;;19.16;35.86
61014;BME280;46899;47.542;19.082;2023-05-09T13:24:19;100898.81;;;18.76;36.93
61014;BME280;46899;47.542;19.082;2023-05-09T13:27:22;100882.34;;;19.01;36.70
61014;BME280;46899;47.542;19.082;2023-05-09T13:30:24;100883.00;;;19.33;36.54
61014;BME280;46899;47.542;19.082;2023-05-09T13:33:26;100884.78;;;19.18;36.03
61014;BME280;46899;47.542;19.082;2023-05-09T13:36:29;100889.03;;;19.21;35.69
61014;BME280;46899;47.542;19.082;2023-05-09T13:39:33;100885.06;;;19.28;35.44
61014;BME280;46899;47.542;19.082;2023-05-09T13:42:37;100885.06;;;19.97;34.48
61014;BME280;46899;47.542;19.082;2023-05-09T13:45:39;100882.47;;;20.49;33.90
61014;BME280;46899;47.542;19.082;2023-05-09T13:48:42;100876.47;;;20.84;32.92
61014;BME280;46899;47.542;19.082;2023-05-09T13:51:45;100876.81;;;20.01;33.75
61014;BME280;46899;47.542;19.082;2023-05-09T13:54:48;100873.16;;;19.63;35.52
61014;BME280;46899;47.542;19.082;2023-05-09T13:57:50;100866.63;;;18.99;36.19
61014;BME280;46899;47.542;19.082;2023-05-09T14:00:53;100868.59;;;18.96;36.27
61014;BME280;46899;47.542;19.082;2023-05-09T14:03:55;100859.06;;;18.65;37.12
61014;BME280;46899;47.542;19.082;2023-05-09T14:06:58;100861.78;;;18.34;37.39
61014;BME280;46899;47.542;19.082;2023-05-09T14:10:01;100850.84;;;18.26;37.75
61014;BME280;46899;47.542;19.082;2023-05-09T14:13:09;100845.47;;;18.13;37.98
61014;BME280;46899;47.542;19.082;2023-05-09T14:16:12;100839.66;;;18.66;37.67
61014;BME280;46899;47.542;19.082;2023-05-09T14:19:16;100842.84;;;19.28;36.75
61014;BME280;46899;47.542;19.082;2023-05-09T14:22:19;100845.69;;;19.39;35.36
61014;BME280;46899;47.542;19.082;2023-05-09T14:25:22;100838.72;;;19.24;35.48
61014;BME280;46899;47.542;19.082;2023-05-09T14:28:25;100832.84;;;19.47;35.57
61014;BME280;46899;47.542;19.082;2023-05-09T14:31:27;100840.50;;;19.78;35.36
61014;BME280;46899;47.542;19.082;2023-05-09T14:34:30;100820.78;;;19.96;35.30
61014;BME280;46899;47.542;19.082;2023-05-09T14:37:33;100840.06;;;19.57;36.06
61014;BME280;46899;47.542;19.082;2023-05-09T14:40:35;100823.06;;;19.21;36.33
61014;BME280;46899;47.542;19.082;2023-05-09T14:43:38;100828.19;;;18.95;37.45
61014;BME280;46899;47.542;19.082;2023-05-09T14:46:40;100821.78;;;18.71;37.66
61014;BME280;46899;47.542;19.082;2023-05-09T14:49:45;100825.09;;;18.45;38.31
61014;BME280;46899;47.542;19.082;2023-05-09T14:52:48;100824.59;;;18.24;38.90
61014;BME280;46899;47.542;19.082;2023-05-09T14:55:54;100830.13;;;18.20;38.64
61014;BME280;46899;47.542;19.082;2023-05-09T14:58:57;100814.03;;;18.10;38.89
61014;BME280;46899;47.542;19.082;2023-05-09T15:01:59;100816.87;;;18.51;38.51
61014;BME280;46899;47.542;19.082;2023-05-09T15:05:02;100810.56;;;18.82;37.86
61014;BME280;46899;47.542;19.082;2023-05-09T15:08:05;100801.97;;;19.06;37.50
61014;BME280;46899;47.542;19.082;2023-05-09T15:11:08;100802.38;;;19.00;36.93
61014;BME280;46899;47.542;19.082;2023-05-09T15:14:10;100804.81;;;18.89;37.33
61014;BME280;46899;47.542;19.082;2023-05-09T15:17:13;100802.50;;;18.41;38.13
61014;BME280;46899;47.542;19.082;2023-05-09T15:20:16;100797.59;;;17.91;39.31
61014;BME280;46899;47.542;19.082;2023-05-09T15:23:19;100795.66;;;17.79;39.74
61014;BME280;46899;47.542;19.082;2023-05-09T15:26:22;100796.34;;;17.83;39.84
61014;BME280;46899;47.542;19.082;2023-05-09T15:29:25;100791.91;;;18.13;39.23
61014;BME280;46899;47.542;19.082;2023-05-09T15:32:27;100791.34;;;18.52;38.72
61014;BME280;46899;47.542;19.082;2023-05-09T15:35:30;100791.91;;;18.71;37.97
61014;BME280;46899;47.542;19.082;2023-05-09T15:38:33;100781.09;;;18.47;38.47
61014;BME280;46899;47.542;19.082;2023-05-09T15:41:36;100771.06;;;18.38;39.11
61014;BME280;46899;47.542;19.082;2023-05-09T15:44:39;100774.72;;;18.21;39.82
61014;BME280;46899;47.542;19.082;2023-05-09T15:47:42;100786.13;;;17.92;39.83
61014;BME280;46899;47.542;19.082;2023-05-09T15:50:44;100780.50;;;17.68;40.64
61014;BME280;46899;47.542;19.082;2023-05-09T15:53:47;100779.81;;;17.49;41.20
61014;BME280;46899;47.542;19.082;2023-05-09T15:56:51;100775.16;;;17.54;41.20
61014;BME280;46899;47.542;19.082;2023-05-09T15:59:54;100774.53;;;17.49;41.48
61014;BME280;46899;47.542;19.082;2023-05-09T16:02:57;100766.72;;;17.48;41.26
61014;BME280;46899;47.542;19.082;2023-05-09T16:06:00;100759.34;;;17.39;41.13